createdAt,value
2018-10-09T00:00:48.950Z,19.09
2018-10-09T00:01:48.182Z,19.09
2018-10-09T00:02:47.940Z,19.09
2018-10-09T00:03:48.240Z,19.09
2018-10-09T00:04:48.232Z,19.09
2018-10-09T00:05:48.003Z,19.09
2018-10-09T00:06:48.200Z,19.09
2018-10-09T00:07:48.497Z,19.09
2018-10-09T00:08:48.050Z,19.09
2018-10-09T00:09:48.135Z,19.08
2018-10-09T00:10:48.055Z,19.08
2018-10-09T00:11:48.055Z,19.09
2018-10-09T00:12:48.252Z,19.09
2018-10-09T00:13:48.207Z,19.09
2018-10-09T00:14:48.241Z,19.08
2018-10-09T00:15:48.442Z,19.08
2018-10-09T00:16:48.120Z,19.08
2018-10-09T00:17:48.129Z,19.09
2018-10-09T00:18:48.004Z,19.08
2018-10-09T00:19:48.041Z,19.08
2018-10-09T00:20:47.969Z,19.07
2018-10-09T00:21:48.303Z,19.07
2018-10-09T00:22:47.903Z,19.08
2018-10-09T00:23:48.154Z,19.06
2018-10-09T00:24:48.121Z,19.07
2018-10-09T00:25:48.292Z,19.06
2018-10-09T00:26:48.398Z,19.06
2018-10-09T00:27:48.163Z,19.06
2018-10-09T00:28:48.148Z,19.06
2018-10-09T00:29:48.663Z,19.05
2018-10-09T00:30:47.976Z,19.06
2018-10-09T00:31:48.435Z,19.07
2018-10-09T00:32:48.073Z,19.06
2018-10-09T00:33:48.178Z,19.06
2018-10-09T00:34:48.030Z,19.06
2018-10-09T00:35:48.060Z,19.05
2018-10-09T00:36:48.301Z,19.05
2018-10-09T00:37:47.912Z,19.05
2018-10-09T00:38:48.317Z,19.04
2018-10-09T00:39:48.053Z,19.04
2018-10-09T00:40:48.221Z,19.04
2018-10-09T00:41:47.975Z,19.04
2018-10-09T00:42:47.859Z,19.04
2018-10-09T00:43:48.139Z,19.03
2018-10-09T00:44:48.204Z,19.03
2018-10-09T00:45:48.118Z,19.04
2018-10-09T00:46:48.327Z,19.04
2018-10-09T00:47:48.150Z,19.03
2018-10-09T00:48:47.900Z,19.05
2018-10-09T00:49:48.368Z,19.04
2018-10-09T00:50:48.170Z,19.04
2018-10-09T00:51:48.125Z,19.03
2018-10-09T00:52:48.046Z,19.04
2018-10-09T00:53:48.058Z,19.04
2018-10-09T00:54:48.486Z,19.04
2018-10-09T00:55:48.141Z,19.03
2018-10-09T00:56:48.292Z,19.04
2018-10-09T00:57:48.352Z,19.04
2018-10-09T00:58:48.148Z,19.04
2018-10-09T00:59:47.884Z,19.03
2018-10-09T01:00:48.304Z,19.04
2018-10-09T01:01:48.073Z,19.03
2018-10-09T01:02:48.194Z,19.04
2018-10-09T01:03:48.220Z,19.04
2018-10-09T01:04:48.015Z,19.04
2018-10-09T01:05:48.187Z,19.03
2018-10-09T01:06:48.063Z,19.03
2018-10-09T01:07:48.099Z,19.03
2018-10-09T01:08:47.932Z,19.03
2018-10-09T01:09:48.501Z,19.04
2018-10-09T01:10:48.187Z,19.03
2018-10-09T01:11:48.248Z,19.03
2018-10-09T01:12:48.114Z,19.03
2018-10-09T01:13:48.604Z,19.03
2018-10-09T01:14:47.945Z,19.03
2018-10-09T01:15:48.039Z,19.03
2018-10-09T01:16:48.391Z,19.03
2018-10-09T01:17:47.937Z,19.03
2018-10-09T01:18:48.091Z,19.03
2018-10-09T01:19:48.104Z,19.02
2018-10-09T01:20:48.017Z,19.02
2018-10-09T01:21:48.081Z,19.03
2018-10-09T01:22:48.015Z,19.03
2018-10-09T01:23:47.959Z,19.03
2018-10-09T01:24:48.110Z,19.03
2018-10-09T01:25:48.097Z,19.03
2018-10-09T01:26:47.946Z,19.03
2018-10-09T01:27:48.055Z,19.03
2018-10-09T01:28:48.430Z,19.03
2018-10-09T01:29:48.096Z,19.02
2018-10-09T01:30:48.059Z,19.03
2018-10-09T01:31:47.883Z,19.03
2018-10-09T01:32:48.147Z,19.03
2018-10-09T01:33:48.054Z,19.03
2018-10-09T01:34:47.904Z,19.02
2018-10-09T01:35:48.267Z,19.02
2018-10-09T01:36:47.999Z,19.02
2018-10-09T01:37:48.116Z,19.02
2018-10-09T01:38:48.076Z,19.01
2018-10-09T01:39:48.082Z,19.01
2018-10-09T01:40:48.260Z,19.02
2018-10-09T01:41:48.241Z,19.02
2018-10-09T01:42:48.094Z,19.01
2018-10-09T01:43:48.192Z,19.01
2018-10-09T01:44:47.935Z,19.02
2018-10-09T01:45:48.490Z,19.02
2018-10-09T01:46:47.980Z,19.02
2018-10-09T01:47:48.112Z,19.01
2018-10-09T01:48:47.892Z,19.01
2018-10-09T01:49:48.269Z,19.01
2018-10-09T01:50:48.068Z,19.01
2018-10-09T01:51:47.972Z,19.01
2018-10-09T01:52:47.963Z,19.01
2018-10-09T01:53:48.008Z,19.01
2018-10-09T01:54:48.136Z,19.02
2018-10-09T01:55:48.058Z,19.01
2018-10-09T01:56:47.918Z,19.01
2018-10-09T01:57:48.253Z,19.01
2018-10-09T01:58:48.106Z,19.01
2018-10-09T01:59:48.104Z,19.01
2018-10-09T02:00:48.709Z,19
2018-10-09T02:01:47.934Z,19.01
2018-10-09T02:02:48.345Z,19
2018-10-09T02:03:48.088Z,19.01
2018-10-09T02:04:47.963Z,19
2018-10-09T02:05:48.046Z,19
2018-10-09T02:06:47.979Z,19
2018-10-09T02:07:48.344Z,19.01
2018-10-09T02:08:48.656Z,19
2018-10-09T02:09:48.062Z,19
2018-10-09T02:10:48.086Z,19
2018-10-09T02:11:48.178Z,19
2018-10-09T02:12:48.632Z,19.01
2018-10-09T02:13:47.909Z,19
2018-10-09T02:14:48.031Z,18.99
2018-10-09T02:15:47.902Z,18.99
2018-10-09T02:16:48.034Z,18.99
2018-10-09T02:17:47.937Z,18.97
2018-10-09T02:18:48.239Z,18.98
2018-10-09T02:19:48.210Z,18.99
2018-10-09T02:20:48.153Z,18.99
2018-10-09T02:21:48.054Z,18.99
2018-10-09T02:22:48.075Z,19
2018-10-09T02:23:48.342Z,19
2018-10-09T02:24:48.452Z,19
2018-10-09T02:25:48.069Z,18.99
2018-10-09T02:26:48.339Z,18.99
2018-10-09T02:27:47.867Z,18.99
2018-10-09T02:28:48.040Z,18.98
2018-10-09T02:29:48.467Z,18.98
2018-10-09T02:30:48.519Z,18.98
2018-10-09T02:31:47.939Z,18.98
2018-10-09T02:32:48.151Z,18.97
2018-10-09T02:33:48.215Z,18.97
2018-10-09T02:34:47.963Z,18.97
2018-10-09T02:35:48.268Z,18.97
2018-10-09T02:36:48.186Z,18.97
2018-10-09T02:37:48.475Z,18.97
2018-10-09T02:38:48.086Z,18.97
2018-10-09T02:39:48.199Z,18.97
2018-10-09T02:40:48.162Z,18.97
2018-10-09T02:41:47.967Z,18.97
2018-10-09T02:42:48.061Z,18.97
2018-10-09T02:43:48.006Z,18.97
2018-10-09T02:44:48.085Z,18.97
2018-10-09T02:45:48.064Z,18.97
2018-10-09T02:46:48.171Z,18.97
2018-10-09T02:47:48.071Z,18.95
2018-10-09T02:48:47.918Z,18.96
2018-10-09T02:49:48.030Z,18.96
2018-10-09T02:50:48.314Z,18.96
2018-10-09T02:51:48.071Z,18.96
2018-10-09T02:52:48.001Z,18.96
2018-10-09T02:53:48.043Z,18.95
2018-10-09T02:54:48.382Z,18.96
2018-10-09T02:55:48.014Z,18.97
2018-10-09T02:56:48.006Z,18.97
2018-10-09T02:57:47.900Z,18.96
2018-10-09T02:58:48.195Z,18.96
2018-10-09T02:59:48.154Z,18.96
2018-10-09T03:00:48.004Z,18.97
2018-10-09T03:01:48.149Z,18.96
2018-10-09T03:02:47.978Z,18.96
2018-10-09T03:03:48.213Z,18.95
2018-10-09T03:04:47.970Z,18.95
2018-10-09T03:05:47.937Z,18.95
2018-10-09T03:06:48.095Z,18.96
2018-10-09T03:07:47.835Z,18.95
2018-10-09T03:08:48.146Z,18.96
2018-10-09T03:09:48.162Z,18.96
2018-10-09T03:10:47.935Z,18.96
2018-10-09T03:11:47.914Z,18.97
2018-10-09T03:12:48.251Z,18.94
2018-10-09T03:13:48.017Z,18.95
2018-10-09T03:14:48.052Z,18.95
2018-10-09T03:15:47.968Z,18.94
2018-10-09T03:16:48.016Z,18.94
2018-10-09T03:17:48.489Z,18.95
2018-10-09T03:18:48.062Z,18.94
2018-10-09T03:19:48.132Z,18.94
2018-10-09T03:20:49.362Z,18.94
2018-10-09T03:21:48.009Z,18.94
2018-10-09T03:22:48.264Z,18.94
2018-10-09T03:23:48.427Z,18.94
2018-10-09T03:24:47.997Z,18.94
2018-10-09T03:25:48.239Z,18.94
2018-10-09T03:26:47.837Z,18.94
2018-10-09T03:27:48.147Z,18.94
2018-10-09T03:28:47.973Z,18.94
2018-10-09T03:29:48.053Z,18.94
2018-10-09T03:30:47.782Z,18.94
2018-10-09T03:31:47.977Z,18.93
2018-10-09T03:32:47.899Z,18.92
2018-10-09T03:33:48.179Z,18.93
2018-10-09T03:34:47.946Z,18.93
2018-10-09T03:35:48.224Z,18.94
2018-10-09T03:36:48.035Z,18.93
2018-10-09T03:37:48.224Z,18.93
2018-10-09T03:38:47.976Z,18.94
2018-10-09T03:39:48.469Z,18.94
2018-10-09T03:40:48.175Z,18.94
2018-10-09T03:41:48.559Z,18.95
2018-10-09T03:42:48.399Z,18.95
2018-10-09T03:43:48.337Z,18.94
2018-10-09T03:44:48.163Z,18.94
2018-10-09T03:45:48.140Z,18.95
2018-10-09T03:46:48.023Z,18.93
2018-10-09T03:47:48.046Z,18.93
2018-10-09T03:48:47.840Z,18.93
2018-10-09T03:49:48.277Z,18.93
2018-10-09T03:50:48.029Z,18.92
2018-10-09T03:51:48.066Z,18.93
2018-10-09T03:52:47.913Z,18.92
2018-10-09T03:53:48.431Z,18.93
2018-10-09T03:54:48.033Z,18.92
2018-10-09T03:55:48.040Z,18.91
2018-10-09T03:56:47.890Z,18.91
2018-10-09T03:57:48.803Z,18.92
2018-10-09T03:58:48.096Z,18.91
2018-10-09T03:59:48.230Z,18.9
2018-10-09T04:00:48.168Z,18.9
2018-10-09T04:01:48.582Z,18.92
2018-10-09T04:02:47.884Z,18.91
2018-10-09T04:03:47.967Z,18.92
2018-10-09T04:04:48.388Z,18.91
2018-10-09T04:05:48.473Z,18.92
2018-10-09T04:06:47.789Z,18.92
2018-10-09T04:07:47.993Z,18.91
2018-10-09T04:08:47.797Z,18.91
2018-10-09T04:09:48.232Z,18.91
2018-10-09T04:10:48.090Z,18.91
2018-10-09T04:11:48.108Z,18.91
2018-10-09T04:12:48.905Z,18.91
2018-10-09T04:13:48.206Z,18.9
2018-10-09T04:14:48.067Z,18.91
2018-10-09T04:15:47.845Z,18.92
2018-10-09T04:16:47.895Z,18.9
2018-10-09T04:17:48.045Z,18.9
2018-10-09T04:18:48.255Z,18.9
2018-10-09T04:19:47.788Z,18.91
2018-10-09T04:20:48.164Z,18.9
2018-10-09T04:21:48.100Z,18.9
2018-10-09T04:22:48.356Z,18.91
2018-10-09T04:23:47.845Z,18.9
2018-10-09T04:24:48.000Z,18.9
2018-10-09T04:25:47.865Z,18.9
2018-10-09T04:26:48.061Z,18.9
2018-10-09T04:27:48.706Z,18.91
2018-10-09T04:28:48.076Z,18.9
2018-10-09T04:29:47.759Z,18.9
2018-10-09T04:30:47.785Z,18.9
2018-10-09T04:31:48.531Z,18.91
2018-10-09T04:32:48.581Z,18.91
2018-10-09T04:33:47.935Z,18.9
2018-10-09T04:34:47.804Z,18.9
2018-10-09T04:35:47.961Z,18.9
2018-10-09T04:36:48.878Z,18.91
2018-10-09T04:37:47.871Z,18.9
2018-10-09T04:38:48.088Z,18.9
2018-10-09T04:39:48.501Z,18.89
2018-10-09T04:40:47.924Z,18.9
2018-10-09T04:41:48.180Z,18.89
2018-10-09T04:42:47.850Z,18.89
2018-10-09T04:43:47.979Z,18.9
2018-10-09T04:44:47.986Z,18.9
2018-10-09T04:45:48.163Z,18.9
2018-10-09T04:46:48.247Z,18.91
2018-10-09T04:47:47.944Z,18.91
2018-10-09T04:48:48.116Z,18.91
2018-10-09T04:49:47.896Z,18.9
2018-10-09T04:50:47.854Z,18.9
2018-10-09T04:51:48.212Z,18.9
2018-10-09T04:52:48.015Z,18.9
2018-10-09T04:53:48.109Z,18.9
2018-10-09T04:54:48.198Z,18.9
2018-10-09T04:55:48.172Z,18.9
2018-10-09T04:56:48.016Z,18.9
2018-10-09T04:57:48.178Z,18.9
2018-10-09T04:58:48.222Z,18.9
2018-10-09T04:59:48.201Z,18.9
2018-10-09T05:00:49.069Z,18.89
2018-10-09T05:01:48.168Z,18.88
2018-10-09T05:02:48.012Z,18.9
2018-10-09T05:03:48.192Z,18.9
2018-10-09T05:04:48.168Z,18.9
2018-10-09T05:05:47.915Z,18.9
2018-10-09T05:06:48.398Z,18.89
2018-10-09T05:07:47.870Z,18.9
2018-10-09T05:08:47.865Z,18.9
2018-10-09T05:09:48.303Z,18.9
2018-10-09T05:10:48.074Z,18.9
2018-10-09T05:11:47.993Z,18.89
2018-10-09T05:12:47.979Z,18.9
2018-10-09T05:13:48.026Z,18.9
2018-10-09T05:14:48.751Z,18.9
2018-10-09T05:15:48.049Z,18.91
2018-10-09T05:16:48.309Z,18.9
2018-10-09T05:17:49.094Z,18.9
2018-10-09T05:18:47.872Z,18.91
2018-10-09T05:19:48.284Z,18.9
2018-10-09T05:20:48.290Z,18.9
2018-10-09T05:21:48.139Z,18.89
2018-10-09T05:22:47.866Z,18.9
2018-10-09T05:23:47.796Z,18.9
2018-10-09T05:24:48.113Z,18.89
2018-10-09T05:25:47.827Z,18.88
2018-10-09T05:26:47.913Z,18.9
2018-10-09T05:27:48.050Z,18.9
2018-10-09T05:28:47.824Z,18.9
2018-10-09T05:29:48.008Z,18.9
2018-10-09T05:30:47.966Z,18.9
2018-10-09T05:31:47.923Z,18.9
2018-10-09T05:32:47.921Z,18.9
2018-10-09T05:33:48.395Z,18.9
2018-10-09T05:34:47.816Z,18.9
2018-10-09T05:35:48.016Z,18.9
2018-10-09T05:36:48.172Z,18.9
2018-10-09T05:37:49.050Z,18.9
2018-10-09T05:38:47.968Z,18.89
2018-10-09T05:39:48.218Z,18.9
2018-10-09T05:40:47.922Z,18.9
2018-10-09T05:41:48.038Z,18.89
2018-10-09T05:42:48.060Z,18.89
2018-10-09T05:43:47.936Z,18.9
2018-10-09T05:44:48.355Z,18.9
2018-10-09T05:45:47.872Z,18.9
2018-10-09T05:46:48.083Z,18.9
2018-10-09T05:47:48.074Z,18.9
2018-10-09T05:48:48.148Z,18.9
2018-10-09T05:49:48.068Z,18.89
2018-10-09T05:50:47.950Z,18.89
2018-10-09T05:51:47.949Z,18.9
2018-10-09T05:52:48.069Z,18.9
2018-10-09T05:53:47.866Z,18.9
2018-10-09T05:54:47.799Z,18.91
2018-10-09T05:55:47.771Z,18.9
2018-10-09T05:56:47.944Z,18.9
2018-10-09T05:57:48.316Z,18.9
2018-10-09T05:58:47.887Z,18.91
2018-10-09T05:59:47.949Z,18.9
2018-10-09T06:00:47.958Z,18.9
2018-10-09T06:01:48.379Z,18.9
2018-10-09T06:02:47.819Z,18.9
2018-10-09T06:03:48.061Z,18.89
2018-10-09T06:04:47.905Z,18.9
2018-10-09T06:05:48.270Z,18.88
2018-10-09T06:06:48.113Z,18.88
2018-10-09T06:07:48.245Z,18.88
2018-10-09T06:08:47.833Z,18.89
2018-10-09T06:09:47.854Z,18.89
2018-10-09T06:10:48.077Z,18.9
2018-10-09T06:11:48.540Z,18.89
2018-10-09T06:12:47.875Z,18.9
2018-10-09T06:13:48.352Z,18.9
2018-10-09T06:14:48.006Z,18.89
2018-10-09T06:15:48.244Z,18.89
2018-10-09T06:16:47.916Z,18.89
2018-10-09T06:17:47.896Z,18.89
2018-10-09T06:18:48.051Z,18.89
2018-10-09T06:19:47.790Z,18.89
2018-10-09T06:20:47.985Z,18.89
2018-10-09T06:21:48.112Z,18.88
2018-10-09T06:22:47.947Z,18.89
2018-10-09T06:23:47.804Z,18.9
2018-10-09T06:24:48.258Z,18.9
2018-10-09T06:25:48.174Z,18.9
2018-10-09T06:26:48.149Z,18.9
2018-10-09T06:27:48.454Z,18.9
2018-10-09T06:28:47.950Z,18.9
2018-10-09T06:29:47.911Z,18.9
2018-10-09T06:30:48.422Z,18.9
2018-10-09T06:31:47.919Z,18.9
2018-10-09T06:32:47.913Z,18.9
2018-10-09T06:33:48.249Z,18.9
2018-10-09T06:34:48.272Z,18.89
2018-10-09T06:35:47.956Z,18.89
2018-10-09T06:36:47.873Z,18.89
2018-10-09T06:37:48.108Z,18.89
2018-10-09T06:38:47.909Z,18.89
2018-10-09T06:39:48.741Z,18.88
2018-10-09T06:40:48.852Z,18.89
2018-10-09T06:41:48.145Z,18.88
2018-10-09T06:42:48.975Z,18.89
2018-10-09T06:43:47.899Z,18.89
2018-10-09T06:44:48.044Z,18.89
2018-10-09T06:45:47.979Z,18.9
2018-10-09T06:46:48.017Z,18.89
2018-10-09T06:47:49.314Z,18.89
2018-10-09T06:48:47.994Z,18.9
2018-10-09T06:49:47.860Z,18.9
2018-10-09T06:50:47.968Z,18.89
2018-10-09T06:51:47.876Z,18.89
2018-10-09T06:52:47.918Z,18.9
2018-10-09T06:53:50.022Z,18.89
2018-10-09T06:54:49.008Z,18.9
2018-10-09T06:55:47.894Z,18.9
2018-10-09T06:56:48.235Z,18.9
2018-10-09T06:57:48.331Z,18.89
2018-10-09T06:58:47.954Z,18.9
2018-10-09T06:59:48.211Z,18.9
2018-10-09T07:00:48.195Z,18.89
2018-10-09T07:01:47.946Z,18.89
2018-10-09T07:02:47.888Z,18.9
2018-10-09T07:03:47.959Z,18.9
2018-10-09T07:04:47.911Z,18.9
2018-10-09T07:05:48.011Z,18.9
2018-10-09T07:06:48.183Z,18.9
2018-10-09T07:07:47.802Z,18.89
2018-10-09T07:08:47.856Z,18.89
2018-10-09T07:09:48.023Z,18.88
2018-10-09T07:10:48.009Z,18.89
2018-10-09T07:11:47.968Z,18.89
2018-10-09T07:12:47.969Z,18.89
2018-10-09T07:13:48.307Z,18.9
2018-10-09T07:14:48.028Z,18.89
2018-10-09T07:15:47.773Z,18.9
2018-10-09T07:16:48.533Z,18.9
2018-10-09T07:17:47.765Z,18.88
2018-10-09T07:18:47.909Z,18.89
2018-10-09T07:19:47.894Z,18.89
2018-10-09T07:20:47.784Z,18.89
2018-10-09T07:21:48.010Z,18.88
2018-10-09T07:22:47.832Z,18.89
2018-10-09T07:23:47.793Z,18.89
2018-10-09T07:24:48.005Z,18.89
2018-10-09T07:25:48.194Z,18.88
2018-10-09T07:26:47.802Z,18.89
2018-10-09T07:27:48.314Z,18.9
2018-10-09T07:28:48.023Z,18.9
2018-10-09T07:29:47.845Z,18.9
2018-10-09T07:30:47.937Z,18.91
2018-10-09T07:31:47.989Z,18.91
2018-10-09T07:32:47.986Z,18.92
2018-10-09T07:33:48.047Z,18.92
2018-10-09T07:34:48.391Z,18.93
2018-10-09T07:35:47.835Z,18.93
2018-10-09T07:36:47.861Z,18.94
2018-10-09T07:37:47.774Z,18.94
2018-10-09T07:38:47.968Z,18.94
2018-10-09T07:39:47.960Z,18.94
2018-10-09T07:40:48.096Z,18.95
2018-10-09T07:41:47.981Z,18.95
2018-10-09T07:42:48.084Z,18.95
2018-10-09T07:43:48.132Z,18.94
2018-10-09T07:44:47.992Z,18.95
2018-10-09T07:45:47.747Z,18.95
2018-10-09T07:46:47.855Z,18.95
2018-10-09T07:47:48.105Z,18.95
2018-10-09T07:48:48.058Z,18.95
2018-10-09T07:49:48.037Z,18.96
2018-10-09T07:50:47.766Z,18.96
2018-10-09T07:51:48.020Z,18.96
2018-10-09T07:52:48.511Z,18.96
2018-10-09T07:53:48.006Z,18.97
2018-10-09T07:54:48.047Z,18.97
2018-10-09T07:55:47.683Z,18.97
2018-10-09T07:56:47.740Z,18.97
2018-10-09T07:57:48.005Z,18.97
2018-10-09T07:58:49.358Z,18.98
2018-10-09T07:59:47.920Z,18.97
2018-10-09T08:00:47.993Z,18.95
2018-10-09T08:01:48.032Z,18.96
2018-10-09T08:02:47.679Z,18.98
2018-10-09T08:03:47.955Z,18.99
2018-10-09T08:04:48.869Z,18.99
2018-10-09T08:05:47.838Z,19
2018-10-09T08:06:48.030Z,19.02
2018-10-09T08:07:47.847Z,19.03
2018-10-09T08:08:47.989Z,19.06
2018-10-09T08:09:48.401Z,19.09
2018-10-09T08:10:48.770Z,19.09
2018-10-09T08:11:47.958Z,19.12
2018-10-09T08:12:48.097Z,19.13
2018-10-09T08:13:47.919Z,19.13
2018-10-09T08:14:48.000Z,19.15
2018-10-09T08:15:48.010Z,19.15
2018-10-09T08:16:47.890Z,19.15
2018-10-09T08:17:47.920Z,19.15
2018-10-09T08:18:47.819Z,19.16
2018-10-09T08:19:47.859Z,19.17
2018-10-09T08:20:47.896Z,19.17
2018-10-09T08:21:47.859Z,19.2
2018-10-09T08:22:48.651Z,19.21
2018-10-09T08:23:47.999Z,19.21
2018-10-09T08:24:48.063Z,19.23
2018-10-09T08:25:48.012Z,19.22
2018-10-09T08:26:48.243Z,19.19
2018-10-09T08:27:48.221Z,19.17
2018-10-09T08:28:47.948Z,19.15
2018-10-09T08:29:48.072Z,19.14
2018-10-09T08:30:48.057Z,19.14
2018-10-09T08:31:47.846Z,19.15
2018-10-09T08:32:48.073Z,19.15
2018-10-09T08:33:48.631Z,19.15
2018-10-09T08:34:47.851Z,19.15
2018-10-09T08:35:47.974Z,19.15
2018-10-09T08:36:47.772Z,19.15
2018-10-09T08:37:47.976Z,19.16
2018-10-09T08:38:47.771Z,19.16
2018-10-09T08:39:47.986Z,19.15
2018-10-09T08:40:48.000Z,19.15
2018-10-09T08:41:47.878Z,19.13
2018-10-09T08:42:47.749Z,19.13
2018-10-09T08:43:47.897Z,19.12
2018-10-09T08:44:47.816Z,19.12
2018-10-09T08:45:48.322Z,19.11
2018-10-09T08:46:47.796Z,19.1
2018-10-09T08:47:47.812Z,19.09
2018-10-09T08:48:48.030Z,19.09
2018-10-09T08:49:47.852Z,19.1
2018-10-09T08:50:47.808Z,19.09
2018-10-09T08:51:48.494Z,19.09
2018-10-09T08:52:47.868Z,19.09
2018-10-09T08:53:47.960Z,19.08
2018-10-09T08:54:48.029Z,19.07
2018-10-09T08:55:47.926Z,19.07
2018-10-09T08:56:47.893Z,19.07
2018-10-09T08:57:48.195Z,19.05
2018-10-09T08:58:48.223Z,19.06
2018-10-09T08:59:48.072Z,19.06
2018-10-09T09:00:47.931Z,19.05
2018-10-09T09:01:48.180Z,19.04
2018-10-09T09:02:47.975Z,19.04
2018-10-09T09:03:48.159Z,19.04
2018-10-09T09:04:47.863Z,19.04
2018-10-09T09:05:48.323Z,19.03
2018-10-09T09:06:48.156Z,19.04
2018-10-09T09:07:47.995Z,19.03
2018-10-09T09:08:47.878Z,19.03
2018-10-09T09:09:49.147Z,19.03
2018-10-09T09:10:47.948Z,19.03
2018-10-09T09:11:48.163Z,19.03
2018-10-09T09:12:48.309Z,19.02
2018-10-09T09:13:48.115Z,19.03
2018-10-09T09:14:47.808Z,19.03
2018-10-09T09:15:48.015Z,19.03
2018-10-09T09:16:48.080Z,19.02
2018-10-09T09:17:47.962Z,19.02
2018-10-09T09:18:47.879Z,19.02
2018-10-09T09:19:48.009Z,19
2018-10-09T09:20:48.667Z,19.01
2018-10-09T09:21:48.390Z,19
2018-10-09T09:22:48.127Z,19.01
2018-10-09T09:23:47.959Z,19.01
2018-10-09T09:24:47.885Z,19.01
2018-10-09T09:25:48.053Z,19.02
2018-10-09T09:26:48.888Z,19.02
2018-10-09T09:27:48.774Z,19.01
2018-10-09T09:28:48.132Z,19.01
2018-10-09T09:29:48.133Z,19.01
2018-10-09T09:30:47.644Z,19
2018-10-09T09:31:48.084Z,19
2018-10-09T09:32:47.808Z,19
2018-10-09T09:33:48.159Z,19
2018-10-09T09:34:47.927Z,19
2018-10-09T09:35:47.896Z,19
2018-10-09T09:36:47.980Z,19
2018-10-09T09:37:48.295Z,19.01
2018-10-09T09:38:48.132Z,18.99
2018-10-09T09:39:47.793Z,18.99
2018-10-09T09:40:47.980Z,18.99
2018-10-09T09:41:47.861Z,18.98
2018-10-09T09:42:48.017Z,18.98
2018-10-09T09:43:47.680Z,18.98
2018-10-09T09:44:48.003Z,18.98
2018-10-09T09:45:48.448Z,18.98
2018-10-09T09:46:47.798Z,18.98
2018-10-09T09:47:47.753Z,18.98
2018-10-09T09:48:48.039Z,18.99
2018-10-09T09:49:47.889Z,18.98
2018-10-09T09:50:48.165Z,18.99
2018-10-09T09:51:48.125Z,18.99
2018-10-09T09:52:47.946Z,18.99
2018-10-09T09:53:47.979Z,18.98
2018-10-09T09:54:47.936Z,18.98
2018-10-09T09:55:47.696Z,18.98
2018-10-09T09:56:47.790Z,18.98
2018-10-09T09:57:48.701Z,18.98
2018-10-09T09:58:50.321Z,18.98
2018-10-09T09:59:47.913Z,18.97
2018-10-09T10:00:47.881Z,18.97
2018-10-09T10:01:48.131Z,18.97
2018-10-09T10:02:47.740Z,18.97
2018-10-09T10:03:49.083Z,18.97
2018-10-09T10:04:47.881Z,18.97
2018-10-09T10:05:47.888Z,18.97
2018-10-09T10:06:47.816Z,18.97
2018-10-09T10:07:47.977Z,18.97
2018-10-09T10:08:48.092Z,18.97
2018-10-09T10:09:47.868Z,18.96
2018-10-09T10:10:47.964Z,18.97
2018-10-09T10:11:47.838Z,18.97
2018-10-09T10:12:47.897Z,18.97
2018-10-09T10:13:48.198Z,18.97
2018-10-09T10:14:47.795Z,18.97
2018-10-09T10:15:48.299Z,18.97
2018-10-09T10:16:48.364Z,18.97
2018-10-09T10:17:47.827Z,18.97
2018-10-09T10:18:48.409Z,18.96
2018-10-09T10:19:47.939Z,18.96
2018-10-09T10:20:47.770Z,18.96
2018-10-09T10:21:47.980Z,18.97
2018-10-09T10:22:48.154Z,18.97
2018-10-09T10:23:47.717Z,18.97
2018-10-09T10:24:47.941Z,18.97
2018-10-09T10:25:47.998Z,18.97
2018-10-09T10:26:48.138Z,18.97
2018-10-09T10:27:47.806Z,18.97
2018-10-09T10:28:47.869Z,18.97
2018-10-09T10:29:47.944Z,18.97
2018-10-09T10:30:48.237Z,18.96
2018-10-09T10:31:47.874Z,18.97
2018-10-09T10:32:48.129Z,18.97
2018-10-09T10:33:47.926Z,18.97
2018-10-09T10:34:47.837Z,18.97
2018-10-09T10:35:48.815Z,18.97
2018-10-09T10:36:48.767Z,18.97
2018-10-09T10:37:48.048Z,18.97
2018-10-09T10:38:47.956Z,18.97
2018-10-09T10:39:48.207Z,18.97
2018-10-09T10:40:47.985Z,18.97
2018-10-09T10:41:47.715Z,18.97
2018-10-09T10:42:47.781Z,18.97
2018-10-09T10:43:47.962Z,18.96
2018-10-09T10:44:48.051Z,18.96
2018-10-09T10:45:47.854Z,18.97
2018-10-09T10:46:47.907Z,18.97
2018-10-09T10:47:47.901Z,18.96
2018-10-09T10:48:48.377Z,18.97
2018-10-09T10:49:47.630Z,18.96
2018-10-09T10:50:48.090Z,18.97
2018-10-09T10:51:47.975Z,18.96
2018-10-09T10:52:47.883Z,18.97
2018-10-09T10:53:47.644Z,18.96
2018-10-09T10:54:48.427Z,18.96
2018-10-09T10:55:47.721Z,18.96
2018-10-09T10:56:47.986Z,18.96
2018-10-09T10:57:47.845Z,18.96
2018-10-09T10:58:48.086Z,18.96
2018-10-09T10:59:48.202Z,18.96
2018-10-09T11:00:48.320Z,18.96
2018-10-09T11:01:49.051Z,18.96
2018-10-09T11:02:48.481Z,18.96
2018-10-09T11:03:47.761Z,18.96
2018-10-09T11:04:47.869Z,18.96
2018-10-09T11:05:48.153Z,18.96
2018-10-09T11:06:47.955Z,18.96
2018-10-09T11:07:48.395Z,18.96
2018-10-09T11:08:47.909Z,18.96
2018-10-09T11:09:48.041Z,18.96
2018-10-09T11:10:48.122Z,18.96
2018-10-09T11:11:48.105Z,18.95
2018-10-09T11:12:48.041Z,18.95
2018-10-09T11:13:47.984Z,18.95
2018-10-09T11:14:49.101Z,18.95
2018-10-09T11:15:47.895Z,18.96
2018-10-09T11:16:47.842Z,18.95
2018-10-09T11:17:48.250Z,18.95
2018-10-09T11:18:48.015Z,18.95
2018-10-09T11:19:47.785Z,18.95
2018-10-09T11:20:48.035Z,18.95
2018-10-09T11:21:47.850Z,18.95
2018-10-09T11:22:47.952Z,18.95
2018-10-09T11:23:47.941Z,18.95
2018-10-09T11:24:47.816Z,18.95
2018-10-09T11:25:47.643Z,18.95
2018-10-09T11:26:47.906Z,18.95
2018-10-09T11:27:47.866Z,18.95
2018-10-09T11:28:47.858Z,18.94
2018-10-09T11:29:47.907Z,18.95
2018-10-09T11:30:47.793Z,18.93
2018-10-09T11:31:47.877Z,18.93
2018-10-09T11:32:47.640Z,18.94
2018-10-09T11:33:48.285Z,18.96
2018-10-09T11:34:48.116Z,18.97
2018-10-09T11:35:47.884Z,18.99
2018-10-09T11:36:47.844Z,18.99
2018-10-09T11:37:47.848Z,19.01
2018-10-09T11:38:47.878Z,19.02
2018-10-09T11:39:47.907Z,19.03
2018-10-09T11:40:47.815Z,19.04
2018-10-09T11:41:47.785Z,19.05
2018-10-09T11:42:48.697Z,19.06
2018-10-09T11:43:47.961Z,19.07
2018-10-09T11:44:47.629Z,19.08
2018-10-09T11:45:47.804Z,19.09
2018-10-09T11:46:47.755Z,19.09
2018-10-09T11:47:47.990Z,19.1
2018-10-09T11:48:48.280Z,19.1
2018-10-09T11:49:48.394Z,19.12
2018-10-09T11:50:47.895Z,19.12
2018-10-09T11:51:47.957Z,19.13
2018-10-09T11:52:47.954Z,19.13
2018-10-09T11:53:48.052Z,19.14
2018-10-09T11:54:47.944Z,19.15
2018-10-09T11:55:48.451Z,19.16
2018-10-09T11:56:47.794Z,19.17
2018-10-09T11:57:48.069Z,19.17
2018-10-09T11:58:47.898Z,19.18
2018-10-09T11:59:47.909Z,19.19
2018-10-09T12:00:47.813Z,19.2
2018-10-09T12:01:47.908Z,19.21
2018-10-09T12:02:48.497Z,19.21
2018-10-09T12:03:47.885Z,19.22
2018-10-09T12:04:47.928Z,19.25
2018-10-09T12:05:48.663Z,19.25
2018-10-09T12:06:47.851Z,19.26
2018-10-09T12:07:47.688Z,19.26
2018-10-09T12:08:47.795Z,19.26
2018-10-09T12:09:47.940Z,19.27
2018-10-09T12:10:48.116Z,19.27
2018-10-09T12:11:47.787Z,19.26
2018-10-09T12:12:47.853Z,19.27
2018-10-09T12:13:47.750Z,19.27
2018-10-09T12:14:47.849Z,19.27
2018-10-09T12:15:48.442Z,19.27
2018-10-09T12:16:48.009Z,19.27
2018-10-09T12:17:47.897Z,19.27
2018-10-09T12:18:47.854Z,19.27
2018-10-09T12:19:47.999Z,19.28
2018-10-09T12:20:48.005Z,19.3
2018-10-09T12:21:47.602Z,19.29
2018-10-09T12:22:48.035Z,19.27
2018-10-09T12:23:47.700Z,19.27
2018-10-09T12:24:48.007Z,19.26
2018-10-09T12:25:47.890Z,19.25
2018-10-09T12:26:47.925Z,19.23
2018-10-09T12:27:48.275Z,19.23
2018-10-09T12:28:47.735Z,19.22
2018-10-09T12:29:47.949Z,19.21
2018-10-09T12:30:48.584Z,19.21
2018-10-09T12:31:47.894Z,19.21
2018-10-09T12:32:48.764Z,19.2
2018-10-09T12:33:48.875Z,19.19
2018-10-09T12:34:47.923Z,19.18
2018-10-09T12:35:47.828Z,19.18
2018-10-09T12:36:48.009Z,19.17
2018-10-09T12:37:48.145Z,19.17
2018-10-09T12:38:47.724Z,19.16
2018-10-09T12:39:47.954Z,19.16
2018-10-09T12:40:47.694Z,19.15
2018-10-09T12:41:47.796Z,19.15
2018-10-09T12:42:47.814Z,19.15
2018-10-09T12:43:48.465Z,19.14
2018-10-09T12:44:47.769Z,19.14
2018-10-09T12:45:47.744Z,19.13
2018-10-09T12:46:47.728Z,19.14
2018-10-09T12:47:47.824Z,19.13
2018-10-09T12:48:47.925Z,19.12
2018-10-09T12:49:47.857Z,19.12
2018-10-09T12:50:47.782Z,19.12
2018-10-09T12:51:47.908Z,19.12
2018-10-09T12:52:48.253Z,19.12
2018-10-09T12:53:47.947Z,19.12
2018-10-09T12:54:48.315Z,19.1
2018-10-09T12:55:47.927Z,19.11
2018-10-09T12:56:47.858Z,19.11
2018-10-09T12:57:47.615Z,19.11
2018-10-09T12:58:48.161Z,19.1
2018-10-09T12:59:47.705Z,19.1